createdAt,value
2018-04-15T00:01:36.475Z,66.68
2018-04-15T00:04:09.065Z,66.90
2018-04-15T00:06:41.559Z,66.74
2018-04-15T00:09:14.079Z,66.62
2018-04-15T00:11:47.107Z,66.57
2018-04-15T00:14:19.637Z,65.49
2018-04-15T00:16:52.143Z,66.59
2018-04-15T00:19:24.695Z,66.92
2018-04-15T00:21:57.220Z,67.01
2018-04-15T00:24:29.751Z,67.38
2018-04-15T00:27:02.280Z,66.99
2018-04-15T00:29:34.828Z,66.55
2018-04-15T00:32:07.327Z,65.68
2018-04-15T00:34:39.898Z,66.22
2018-04-15T00:37:12.458Z,66.64
2018-04-15T00:39:45.117Z,66.75
2018-04-15T00:42:18.369Z,66.15
2018-04-15T00:44:50.973Z,66.30
2018-04-15T00:47:23.514Z,66.58
2018-04-15T00:49:56.066Z,66.54
2018-04-15T00:52:28.604Z,66.48
2018-04-15T00:55:01.203Z,66.51
2018-04-15T00:57:33.746Z,66.38
2018-04-15T01:00:06.305Z,66.56
2018-04-15T01:02:38.875Z,66.50
2018-04-15T01:05:12.017Z,66.48
2018-04-15T01:07:44.602Z,66.48
2018-04-15T01:10:17.984Z,66.14
2018-04-15T01:12:50.511Z,66.22
2018-04-15T01:15:23.229Z,66.48
2018-04-15T01:17:55.806Z,66.44
2018-04-15T01:20:28.353Z,66.52
2018-04-15T01:23:00.894Z,66.41
2018-04-15T01:25:33.452Z,66.56
2018-04-15T01:28:06.143Z,66.55
2018-04-15T01:30:38.733Z,66.78
2018-04-15T01:33:11.289Z,66.78
2018-04-15T01:35:43.846Z,66.39
2018-04-15T01:38:16.404Z,67.11
2018-04-15T01:40:48.963Z,67.00
2018-04-15T01:43:21.479Z,66.87
2018-04-15T01:45:54.042Z,66.85
2018-04-15T01:48:26.579Z,66.29
2018-04-15T01:50:59.131Z,66.68
2018-04-15T01:53:31.653Z,66.98
2018-04-15T01:56:04.207Z,66.76
2018-04-15T01:58:36.743Z,65.87
2018-04-15T02:01:09.304Z,66.76
2018-04-15T02:03:41.861Z,67.42
2018-04-15T02:06:14.387Z,67.10
2018-04-15T02:08:46.946Z,66.57
2018-04-15T02:11:19.488Z,66.76
2018-04-15T02:13:52.041Z,67.17
2018-04-15T02:16:24.579Z,66.79
2018-04-15T02:18:57.132Z,66.66
2018-04-15T02:21:29.650Z,66.92
2018-04-15T02:24:02.217Z,66.94
2018-04-15T02:26:34.739Z,66.95
2018-04-15T02:29:07.295Z,66.95
2018-04-15T02:31:39.887Z,67.13
2018-04-15T02:34:12.527Z,66.56
2018-04-15T02:36:45.044Z,66.48
2018-04-15T02:39:17.605Z,66.40
2018-04-15T02:41:50.143Z,66.22
2018-04-15T02:44:22.765Z,66.23
2018-04-15T02:46:55.319Z,66.22
2018-04-15T02:49:27.884Z,66.39
2018-04-15T02:52:00.423Z,66.39
2018-04-15T02:54:32.978Z,66.46
2018-04-15T02:57:05.514Z,66.48
2018-04-15T02:59:38.084Z,66.42
2018-04-15T03:02:10.603Z,66.28
2018-04-15T03:04:43.162Z,66.31
2018-04-15T03:07:15.886Z,65.86
2018-04-15T03:09:48.431Z,65.52
2018-04-15T03:12:20.958Z,66.37
2018-04-15T03:14:53.703Z,66.86
2018-04-15T03:17:26.227Z,67.25
2018-04-15T03:19:58.795Z,67.04
2018-04-15T03:22:32.011Z,67.09
2018-04-15T03:25:04.571Z,66.97
2018-04-15T03:27:37.100Z,67.01
2018-04-15T03:30:09.652Z,66.87
2018-04-15T03:32:42.186Z,66.94
2018-04-15T03:35:14.746Z,66.88
2018-04-15T03:37:47.258Z,66.84
2018-04-15T03:40:19.811Z,66.86
2018-04-15T03:42:52.363Z,66.94
2018-04-15T03:45:24.931Z,66.72
2018-04-15T03:47:57.530Z,66.36
2018-04-15T03:50:30.081Z,66.55
2018-04-15T03:53:02.616Z,66.50
2018-04-15T03:55:35.177Z,66.51
2018-04-15T03:58:07.703Z,66.39
2018-04-15T04:00:40.269Z,66.52
2018-04-15T04:03:12.793Z,66.66
2018-04-15T04:05:45.362Z,66.51
2018-04-15T04:08:18.078Z,66.49
2018-04-15T04:10:50.628Z,66.64
2018-04-15T04:13:23.173Z,66.73
2018-04-15T04:15:55.736Z,66.83
2018-04-15T04:18:40.127Z,66.74
2018-04-15T04:21:24.633Z,66.71
2018-04-15T04:24:09.012Z,66.74
2018-04-15T04:26:41.571Z,66.53
2018-04-15T04:29:14.143Z,66.70
2018-04-15T04:31:46.692Z,66.71
2018-04-15T04:34:19.230Z,66.70
2018-04-15T04:36:51.796Z,66.77
2018-04-15T04:39:24.335Z,66.75
2018-04-15T04:41:56.968Z,66.81
2018-04-15T04:44:29.502Z,66.72
2018-04-15T04:47:02.055Z,66.80
2018-04-15T04:49:34.584Z,66.94
2018-04-15T04:52:07.161Z,66.93
2018-04-15T04:54:39.675Z,67.01
2018-04-15T04:57:12.252Z,66.75
2018-04-15T04:59:44.779Z,66.96
2018-04-15T05:02:17.340Z,67.09
2018-04-15T05:04:49.875Z,66.59
2018-04-15T05:07:22.407Z,66.50
2018-04-15T05:09:54.935Z,66.42
2018-04-15T05:12:27.530Z,66.60
2018-04-15T05:15:00.064Z,66.13
2018-04-15T05:17:32.673Z,66.06
2018-04-15T05:20:05.184Z,66.25
2018-04-15T05:22:37.739Z,66.16
2018-04-15T05:25:10.280Z,66.04
2018-04-15T05:27:42.839Z,66.32
2018-04-15T05:30:15.433Z,66.23
2018-04-15T05:32:47.968Z,66.03
2018-04-15T05:35:20.560Z,66.24
2018-04-15T05:37:53.234Z,66.25
2018-04-15T05:40:25.928Z,66.44
2018-04-15T05:42:58.609Z,66.21
2018-04-15T05:45:31.171Z,66.18
2018-04-15T05:48:03.709Z,66.56
2018-04-15T05:50:36.449Z,66.41
2018-04-15T05:53:08.984Z,66.08
2018-04-15T05:55:41.652Z,66.04
2018-04-15T05:58:14.192Z,66.35
2018-04-15T06:00:46.751Z,66.40
2018-04-15T06:03:19.262Z,66.51
2018-04-15T06:05:51.896Z,66.74
2018-04-15T06:08:24.427Z,66.62
2018-04-15T06:10:56.984Z,66.47
2018-04-15T06:13:29.520Z,66.79
2018-04-15T06:16:02.084Z,67.20
2018-04-15T06:18:34.633Z,66.79
2018-04-15T06:21:07.192Z,66.73
2018-04-15T06:23:39.725Z,66.66
2018-04-15T06:26:12.275Z,66.52
2018-04-15T06:28:44.831Z,66.83
2018-04-15T06:31:17.382Z,66.90
2018-04-15T06:33:49.907Z,66.75
2018-04-15T06:36:22.459Z,66.77
2018-04-15T06:38:54.993Z,66.86
2018-04-15T06:41:27.540Z,67.17
2018-04-15T06:44:00.083Z,67.18
2018-04-15T06:46:32.647Z,67.34
2018-04-15T06:49:05.252Z,67.00
2018-04-15T06:51:37.808Z,67.67
2018-04-15T06:54:10.374Z,68.02
2018-04-15T06:56:42.937Z,68.20
2018-04-15T06:59:15.596Z,67.93
2018-04-15T07:01:48.871Z,68.26
2018-04-15T07:04:21.415Z,68.49
2018-04-15T07:06:54.075Z,68.61
2018-04-15T07:09:26.599Z,68.40
2018-04-15T07:11:59.168Z,68.54
2018-04-15T07:14:31.701Z,68.83
2018-04-15T07:17:04.281Z,68.55
2018-04-15T07:19:36.826Z,68.25
2018-04-15T07:22:09.390Z,68.34
2018-04-15T07:24:41.930Z,68.27
2018-04-15T07:27:14.504Z,68.37
2018-04-15T07:29:47.031Z,68.29
2018-04-15T07:32:19.610Z,68.45
2018-04-15T07:34:52.145Z,68.50
2018-04-15T07:37:24.715Z,68.26
2018-04-15T07:39:57.253Z,68.17
2018-04-15T07:42:29.818Z,68.04
2018-04-15T07:45:02.351Z,68.04
2018-04-15T07:47:34.916Z,67.98
2018-04-15T07:50:07.441Z,68.08
2018-04-15T07:52:40.314Z,67.99
2018-04-15T07:55:12.860Z,68.05
2018-04-15T07:57:45.437Z,68.36
2018-04-15T08:00:18.028Z,68.21
2018-04-15T08:02:50.604Z,68.18
2018-04-15T08:05:23.132Z,68.02
2018-04-15T08:07:55.742Z,68.06
2018-04-15T08:10:28.279Z,67.82
2018-04-15T08:13:00.840Z,67.82
2018-04-15T08:15:33.384Z,67.87
2018-04-15T08:18:05.943Z,68.08
2018-04-15T08:20:38.478Z,68.35
2018-04-15T08:23:11.038Z,68.33
2018-04-15T08:25:43.575Z,67.99
2018-04-15T08:28:16.183Z,67.97
2018-04-15T08:30:48.719Z,67.99
2018-04-15T08:33:21.315Z,68.06
2018-04-15T08:35:53.854Z,68.13
2018-04-15T08:38:26.405Z,67.76
2018-04-15T08:40:58.927Z,67.51
2018-04-15T08:43:31.510Z,67.68
2018-04-15T08:46:04.058Z,67.56
2018-04-15T08:48:36.617Z,67.41
2018-04-15T08:51:09.151Z,67.40
2018-04-15T08:53:41.712Z,67.28
2018-04-15T08:56:14.253Z,67.40
2018-04-15T08:58:46.840Z,67.46
2018-04-15T09:01:19.396Z,67.45
2018-04-15T09:03:52.541Z,67.35
2018-04-15T09:06:25.233Z,67.39
2018-04-15T09:08:57.795Z,67.42
2018-04-15T09:11:30.371Z,67.23
2018-04-15T09:14:02.922Z,67.35
2018-04-15T09:16:35.466Z,67.47
2018-04-15T09:19:08.023Z,67.42
2018-04-15T09:21:40.560Z,67.48
2018-04-15T09:24:13.153Z,67.37
2018-04-15T09:26:45.828Z,67.48
2018-04-15T09:29:18.412Z,67.52
2018-04-15T09:31:50.989Z,67.53
2018-04-15T09:34:23.531Z,67.90
2018-04-15T09:36:56.109Z,68.16
2018-04-15T09:39:28.731Z,68.07
2018-04-15T09:42:01.328Z,68.24
2018-04-15T09:44:33.852Z,67.71
2018-04-15T09:47:06.383Z,67.83
2018-04-15T09:49:38.984Z,68.15
2018-04-15T09:52:11.561Z,68.19
2018-04-15T09:54:44.147Z,68.49
2018-04-15T09:57:16.755Z,67.88
2018-04-15T09:59:49.319Z,67.58
2018-04-15T10:02:21.849Z,67.68
2018-04-15T10:04:54.351Z,67.54
2018-04-15T10:07:26.911Z,68.00
2018-04-15T10:09:59.416Z,67.64
2018-04-15T10:12:32.043Z,68.39
2018-04-15T10:15:04.592Z,68.65
2018-04-15T10:17:37.119Z,67.83
2018-04-15T10:20:09.640Z,68.27
2018-04-15T10:22:42.265Z,69.32
2018-04-15T10:25:14.876Z,69.28
2018-04-15T10:27:47.408Z,68.76
2018-04-15T10:30:19.917Z,69.18
2018-04-15T10:32:52.441Z,69.60
2018-04-15T10:35:24.944Z,69.31
2018-04-15T10:37:57.472Z,69.72
2018-04-15T10:40:29.976Z,69.26
2018-04-15T10:43:02.494Z,69.10
2018-04-15T10:45:35.020Z,65.57
2018-04-15T10:48:07.587Z,66.30
2018-04-15T10:50:40.095Z,70.19
2018-04-15T10:53:12.716Z,69.78
2018-04-15T10:55:45.299Z,69.82
2018-04-15T10:58:17.839Z,69.51
2018-04-15T11:00:50.367Z,69.47
2018-04-15T11:03:22.891Z,69.78
2018-04-15T11:05:55.399Z,69.55
2018-04-15T11:08:28.032Z,68.04
2018-04-15T11:11:00.579Z,70.04
2018-04-15T11:13:33.123Z,70.99
2018-04-15T11:16:05.631Z,69.96
2018-04-15T11:18:38.155Z,70.57
2018-04-15T11:21:10.675Z,70.08
2018-04-15T11:23:43.240Z,70.39
2018-04-15T11:26:15.736Z,69.76
2018-04-15T11:28:48.317Z,67.12
2018-04-15T11:31:20.824Z,67.02
2018-04-15T11:33:53.385Z,70.65
2018-04-15T11:36:25.900Z,70.43
2018-04-15T11:38:58.436Z,70.20
2018-04-15T11:41:30.939Z,69.63
2018-04-15T11:44:03.525Z,68.42
2018-04-15T11:46:36.189Z,69.03
2018-04-15T11:49:08.727Z,68.56
2018-04-15T11:51:41.275Z,68.81
2018-04-15T11:54:13.791Z,67.97
2018-04-15T11:56:46.380Z,68.29
2018-04-15T11:59:18.941Z,68.94
2018-04-15T12:01:51.443Z,68.53
2018-04-15T12:04:23.971Z,68.47
2018-04-15T12:06:56.597Z,68.83
2018-04-15T12:09:29.133Z,68.90
2018-04-15T12:12:01.636Z,68.80
2018-04-15T12:14:34.162Z,68.86
2018-04-15T12:17:06.667Z,68.76
2018-04-15T12:19:39.208Z,68.32
2018-04-15T12:22:12.319Z,68.23
2018-04-15T12:24:45.424Z,67.98
2018-04-15T12:27:18.411Z,67.84
2018-04-15T12:29:51.112Z,67.46
2018-04-15T12:32:23.685Z,67.91
2018-04-15T12:34:56.244Z,68.25
2018-04-15T12:37:28.756Z,67.82
2018-04-15T12:40:01.301Z,67.54
2018-04-15T12:42:33.807Z,68.28
2018-04-15T12:45:06.411Z,68.23
2018-04-15T12:47:38.924Z,68.35
2018-04-15T12:50:11.474Z,67.98
2018-04-15T12:52:44.071Z,68.13
2018-04-15T12:55:16.649Z,68.03
2018-04-15T12:57:49.228Z,67.96
2018-04-15T13:00:21.875Z,67.92
2018-04-15T13:02:54.512Z,68.47
2018-04-15T13:05:27.092Z,68.32
2018-04-15T13:07:59.615Z,67.89
2018-04-15T13:10:32.146Z,67.79
2018-04-15T13:13:04.676Z,67.25
2018-04-15T13:15:37.607Z,67.58
2018-04-15T13:18:10.331Z,67.54
2018-04-15T13:20:42.897Z,67.42
2018-04-15T13:23:15.508Z,66.55
2018-04-15T13:25:48.019Z,67.52
2018-04-15T13:28:20.547Z,67.66
2018-04-15T13:30:53.047Z,66.50
2018-04-15T13:33:25.578Z,66.07
2018-04-15T13:35:58.084Z,68.95
2018-04-15T13:38:30.633Z,67.91
2018-04-15T13:41:03.200Z,67.59
2018-04-15T13:43:35.724Z,67.55
2018-04-15T13:46:08.249Z,67.03
2018-04-15T13:48:40.771Z,66.07
2018-04-15T13:51:13.341Z,67.03
2018-04-15T13:53:45.939Z,67.02
2018-04-15T13:56:18.528Z,67.49
2018-04-15T13:58:51.094Z,67.40
2018-04-15T14:01:23.605Z,67.21
2018-04-15T14:03:56.178Z,67.79
2018-04-15T14:06:28.746Z,67.82
2018-04-15T14:09:01.259Z,66.79
2018-04-15T14:11:33.763Z,67.37
2018-04-15T14:14:06.280Z,66.33
2018-04-15T14:16:38.784Z,61.72
2018-04-15T14:19:11.311Z,64.22
2018-04-15T14:21:43.895Z,57.73
2018-04-15T14:24:16.517Z,65.78
2018-04-15T14:26:49.023Z,65.55
2018-04-15T14:29:21.620Z,65.73
2018-04-15T14:31:54.132Z,64.85
2018-04-15T14:34:26.681Z,64.92
2018-04-15T14:36:59.184Z,64.69
2018-04-15T14:39:31.703Z,65.54
2018-04-15T14:42:04.220Z,61.93
2018-04-15T14:44:36.740Z,65.98
2018-04-15T14:47:09.248Z,64.37
2018-04-15T14:49:41.771Z,65.02
2018-04-15T14:52:14.284Z,64.27
2018-04-15T14:54:46.838Z,62.99
2018-04-15T14:57:19.355Z,64.00
2018-04-15T14:59:51.884Z,65.25
2018-04-15T15:02:24.376Z,65.42
2018-04-15T15:04:56.912Z,64.19
2018-04-15T15:07:29.419Z,64.41
2018-04-15T15:10:01.956Z,62.81
2018-04-15T15:12:34.465Z,64.23
2018-04-15T15:15:07.058Z,64.50
2018-04-15T15:17:39.569Z,63.52
2018-04-15T15:20:12.104Z,63.97
2018-04-15T15:22:44.749Z,63.82
2018-04-15T15:25:17.260Z,63.18
2018-04-15T15:27:49.759Z,63.57
2018-04-15T15:30:22.291Z,63.10
2018-04-15T15:32:54.800Z,62.75
2018-04-15T15:35:27.323Z,62.54
2018-04-15T15:37:59.831Z,63.05
2018-04-15T15:40:32.360Z,64.39
2018-04-15T15:43:04.868Z,64.31
2018-04-15T15:45:37.403Z,64.57
2018-04-15T15:48:09.956Z,63.73
2018-04-15T15:50:42.479Z,63.67
2018-04-15T15:53:14.994Z,63.25
2018-04-15T15:55:47.515Z,63.78
2018-04-15T15:58:20.087Z,63.36
2018-04-15T16:00:52.680Z,63.22
2018-04-15T16:03:25.177Z,63.64
2018-04-15T16:05:57.709Z,63.65
2018-04-15T16:08:30.239Z,63.62
2018-04-15T16:11:02.778Z,63.42
2018-04-15T16:13:35.288Z,63.30
2018-04-15T16:16:07.816Z,63.88
2018-04-15T16:18:40.382Z,64.26
2018-04-15T16:21:12.908Z,63.76
2018-04-15T16:23:45.457Z,63.02
2018-04-15T16:26:17.980Z,63.30
2018-04-15T16:28:50.520Z,62.99
2018-04-15T16:31:23.111Z,63.59
2018-04-15T16:33:55.695Z,63.80
2018-04-15T16:36:28.214Z,64.00
2018-04-15T16:39:00.729Z,63.80
2018-04-15T16:41:33.252Z,63.72
2018-04-15T16:44:05.762Z,63.79
2018-04-15T16:46:38.284Z,63.89
2018-04-15T16:49:10.903Z,64.05
2018-04-15T16:51:43.483Z,64.29
2018-04-15T16:54:16.008Z,64.28
2018-04-15T16:56:48.555Z,64.31
2018-04-15T16:59:21.092Z,64.18
2018-04-15T17:01:53.591Z,63.90
2018-04-15T17:04:26.113Z,63.53
2018-04-15T17:06:58.692Z,63.44
2018-04-15T17:09:31.207Z,63.61
2018-04-15T17:12:03.788Z,63.71
2018-04-15T17:14:36.367Z,63.98
2018-04-15T17:17:08.879Z,64.21
2018-04-15T17:19:41.408Z,64.44
2018-04-15T17:22:13.922Z,64.61
2018-04-15T17:24:46.523Z,64.53
2018-04-15T17:27:19.032Z,64.97
2018-04-15T17:29:51.664Z,65.15
2018-04-15T17:32:24.192Z,65.04
2018-04-15T17:34:56.737Z,65.55
2018-04-15T17:37:29.852Z,65.68
2018-04-15T17:40:02.439Z,65.72
2018-04-15T17:42:35.011Z,65.87
2018-04-15T17:45:07.545Z,66.17
2018-04-15T17:47:40.058Z,66.12
2018-04-15T17:50:12.588Z,66.25
2018-04-15T17:52:45.095Z,66.27
2018-04-15T17:55:18.060Z,66.22
2018-04-15T17:57:50.642Z,66.28
2018-04-15T18:00:23.437Z,66.32
2018-04-15T18:02:56.007Z,66.48
2018-04-15T18:05:28.648Z,66.87
2018-04-15T18:08:01.187Z,66.88
2018-04-15T18:10:33.768Z,67.20
2018-04-15T18:13:06.269Z,67.04
2018-04-15T18:15:38.826Z,67.06
2018-04-15T18:18:11.331Z,67.12
2018-04-15T18:20:44.009Z,67.24
2018-04-15T18:23:16.655Z,67.22
2018-04-15T18:25:49.316Z,67.31
2018-04-15T18:28:22.091Z,67.62
2018-04-15T18:30:54.624Z,67.50
2018-04-15T18:33:27.122Z,67.73
2018-04-15T18:35:59.719Z,67.69
2018-04-15T18:38:32.401Z,67.34
2018-04-15T18:41:05.006Z,67.56
2018-04-15T18:43:37.600Z,68.04
2018-04-15T18:46:10.142Z,68.22
2018-04-15T18:48:42.644Z,68.30
2018-04-15T18:51:15.247Z,68.19
2018-04-15T18:53:47.752Z,67.79
2018-04-15T18:56:20.314Z,67.71
2018-04-15T18:58:52.826Z,67.79
2018-04-15T19:01:25.355Z,67.73
2018-04-15T19:03:57.858Z,67.83
2018-04-15T19:06:30.379Z,67.50
2018-04-15T19:09:02.883Z,67.65
2018-04-15T19:11:35.404Z,67.71
2018-04-15T19:14:08.011Z,67.64
2018-04-15T19:16:40.544Z,67.61
2018-04-15T19:19:13.071Z,67.70
2018-04-15T19:21:45.592Z,67.68
2018-04-15T19:24:18.095Z,67.46
2018-04-15T19:26:50.615Z,67.63
2018-04-15T19:29:23.130Z,67.63
2018-04-15T19:31:55.700Z,67.46
2018-04-15T19:34:28.282Z,67.61
2018-04-15T19:37:00.801Z,67.76
2018-04-15T19:39:33.316Z,67.79
2018-04-15T19:42:05.844Z,68.01
2018-04-15T19:44:38.355Z,68.03
2018-04-15T19:47:10.916Z,67.68
2018-04-15T19:49:43.422Z,68.15
2018-04-15T19:52:15.944Z,68.61
2018-04-15T19:54:48.452Z,68.24
2018-04-15T19:57:20.987Z,68.09
2018-04-15T19:59:53.488Z,68.18
2018-04-15T20:02:26.012Z,68.09
2018-04-15T20:04:58.552Z,68.25
2018-04-15T20:07:31.071Z,68.00
2018-04-15T20:10:03.582Z,67.69
2018-04-15T20:12:36.154Z,67.72
2018-04-15T20:15:08.740Z,67.53
2018-04-15T20:17:41.326Z,67.86
2018-04-15T20:20:13.880Z,67.99
2018-04-15T20:22:46.456Z,68.07
2018-04-15T20:25:18.982Z,68.03
2018-04-15T20:27:51.504Z,67.86
2018-04-15T20:30:24.059Z,67.82
2018-04-15T20:32:56.576Z,68.03
2018-04-15T20:35:29.129Z,67.92
2018-04-15T20:38:01.706Z,67.94
2018-04-15T20:40:34.239Z,67.75
2018-04-15T20:43:06.742Z,67.63
2018-04-15T20:45:39.272Z,68.21
2018-04-15T20:48:11.788Z,68.18
2018-04-15T20:50:44.312Z,68.18
2018-04-15T20:53:16.826Z,68.14
2018-04-15T20:55:49.351Z,68.06
2018-04-15T20:58:21.847Z,67.97
2018-04-15T21:00:54.376Z,67.96
2018-04-15T21:03:26.888Z,68.03
2018-04-15T21:05:59.418Z,68.17
2018-04-15T21:08:31.917Z,68.23
2018-04-15T21:11:04.524Z,68.21
2018-04-15T21:13:37.039Z,67.95
2018-04-15T21:16:09.592Z,68.08
2018-04-15T21:18:42.088Z,68.24
2018-04-15T21:21:14.611Z,68.05
2018-04-15T21:23:47.214Z,68.19
2018-04-15T21:26:19.830Z,68.33
2018-04-15T21:28:52.406Z,68.42
2018-04-15T21:31:24.997Z,68.36
2018-04-15T21:33:57.502Z,68.32
2018-04-15T21:36:30.027Z,68.04
2018-04-15T21:39:02.537Z,68.07
2018-04-15T21:41:35.063Z,68.31
2018-04-15T21:44:07.570Z,68.37
2018-04-15T21:46:40.103Z,68.34
2018-04-15T21:49:12.608Z,68.12
2018-04-15T21:51:45.137Z,68.36
2018-04-15T21:54:17.644Z,68.17
2018-04-15T21:56:50.185Z,69.21
2018-04-15T21:59:22.690Z,69.82
2018-04-15T22:01:55.224Z,69.73
2018-04-15T22:04:27.732Z,69.67
2018-04-15T22:07:00.397Z,69.67
2018-04-15T22:09:32.894Z,69.69
2018-04-15T22:12:14.480Z,69.94
2018-04-15T22:14:47.081Z,70.19
2018-04-15T22:17:20.580Z,71.71
2018-04-15T22:19:53.080Z,71.94
2018-04-15T22:22:25.607Z,70.79
2018-04-15T22:24:58.108Z,70.14
2018-04-15T22:27:30.636Z,69.61
2018-04-15T22:30:03.148Z,69.39
2018-04-15T22:32:35.671Z,69.79
2018-04-15T22:35:08.167Z,69.75
2018-04-15T22:37:40.754Z,69.61
2018-04-15T22:40:13.272Z,70.00
2018-04-15T22:42:46.112Z,69.97
2018-04-15T22:45:18.663Z,69.96
2018-04-15T22:47:56.779Z,69.64
2018-04-15T22:50:38.001Z,69.61
2018-04-15T22:53:10.584Z,69.54
2018-04-15T22:55:43.088Z,69.46
2018-04-15T22:58:15.609Z,69.46
2018-04-15T23:00:48.110Z,69.47
2018-04-15T23:03:20.715Z,69.50
2018-04-15T23:05:53.212Z,69.26
2018-04-15T23:08:25.733Z,69.25
2018-04-15T23:10:58.249Z,69.34
2018-04-15T23:13:30.773Z,69.36
2018-04-15T23:16:03.285Z,69.38
2018-04-15T23:18:35.808Z,69.34
2018-04-15T23:21:08.344Z,69.40
2018-04-15T23:23:40.867Z,69.26
2018-04-15T23:26:13.368Z,69.31
2018-04-15T23:28:45.902Z,69.34
2018-04-15T23:31:18.415Z,69.20
2018-04-15T23:33:50.959Z,69.35
2018-04-15T23:36:23.471Z,69.42
2018-04-15T23:38:56.003Z,69.67
2018-04-15T23:41:28.508Z,69.51
2018-04-15T23:44:01.045Z,69.49
2018-04-15T23:46:33.560Z,69.51
2018-04-15T23:49:06.194Z,69.42
2018-04-15T23:51:38.771Z,69.38
2018-04-15T23:54:11.289Z,69.71
2018-04-15T23:56:49.400Z,69.99
2018-04-15T23:59:21.956Z,69.65
